FZIA weather

Kisangani Simisini Airport
Orientale Province, Congo (Kinshasa)

Public forecast

Using degrees Celsius for public forecast. Weather courtesy of forecast.io.

METAR (pilot weather report)

Closest report is Bangoka International Airport, 11.2 nm (20.7 km) E. Retrieved 2019/05/22 08:00 UTC (43 minutes ago):

FZIC 220800Z 18006KT 9999 FEW015 FEW024CB BKN120 27/22 Q1014 NOSIG

TAF (pilot weather forecast)

Forecast is more than 12 hours old.

Closest forecast is Bangoka International Airport, 11.2 nm (20.7 km) E. Retrieved 2019/05/21 12:00 UTC (21 hours ago):

TAF FZIC 211100Z 2112/2218 03008KT 9000 SCT032 FEW036CB BECMG 2115/2118 VRB03KT NSC BECMG 2123/2201 2000 BR BKN004 FM220700 18006KT 7000 NSW BKN010 BECMG 2209/2212 SCT028 FEW032CB